Lester, Alabama
Current Conditions -  °F | °C
As of 1:53 PM on Monday 22 Dec 2014 (Local Time) from KDCU Reporting Station
Overcast Overcast  
Wind Chill: 51°   Ceiling: 1000
Heat Index: 51°   Visibility: 10mi
Dew Point: 48°   Wind: 10mph
Humidity: 89%   Direction: 140°SE
Pressure: 29.8"   Gusts: NA
Location:  34.99°N, 87.15°W
Report Text: KDCU 221953Z AUTO 14009KT 10SM OVC010 11/09 A2980 RMK AO2 CIG 008V012 SLP088 T01060089
Loading
Personal Weather Stations






























Interactive Weather Map New forecast layout! Learn more

10-Day Weather Forecast

Advertisements
Track Severe Weather on mobile